GOGG

Ziguinchor Airport

Ziguinchor, Senegal
METAR GOGG 191600Z 04010KT CAVOK 32/07 Q1013
Observed Flight Rules
Jan-19 @ 16:00 UTC (an hour ago) Visual Flight Rules
Wind Visibility Clouds
40° at 10 knots 10,000+ meters
  • Clear skies
Temperatures Readings
Current 32°C / 90°F
Dewpoint 7°C / 45°F
Humidity 21%
Altimeter 29.91" Hg
Pressure 1012.92 hPa
Elevation 23
METAR GOGG 191600Z 04010KT CAVOK 32/07 Q1013
Observed Flight Rules
Jan-19 @ 16:00 UTC
(an hour ago)
VFR
Wind Visibility
40° at 10 knots 10,000+ meters
Clouds
  • Clear skies
Temperature Dewpoint
32°C / 90°F 7°C / 45°F
Humidity Altimeter Pressure
21% 29.91" Hg 1012.92 hPa